createdAt,value
2018-12-15T00:00:57.266Z,55.17
2018-12-15T00:03:36.087Z,55.36
2018-12-15T00:06:08.208Z,55.69
2018-12-15T00:08:40.376Z,56.28
2018-12-15T00:11:11.319Z,56.94
2018-12-15T00:13:42.154Z,57.15
2018-12-15T00:16:15.235Z,55.47
2018-12-15T00:19:01.336Z,56.23
2018-12-15T00:21:39.716Z,57.19
2018-12-15T00:24:11.827Z,57.81
2018-12-15T00:26:43.576Z,56.36
2018-12-15T00:29:23.301Z,59.34
2018-12-15T00:32:09.163Z,58.15
2018-12-15T00:34:43.192Z,59.18
2018-12-15T00:37:15.301Z,57.46
2018-12-15T00:39:53.054Z,57.76
2018-12-15T00:42:32.773Z,56.84
2018-12-15T00:45:04.117Z,55.25
2018-12-15T00:47:53.505Z,57.85
2018-12-15T00:50:33.756Z,57.77
2018-12-15T00:53:13.087Z,57.28
2018-12-15T00:55:44.327Z,55.95
2018-12-15T00:58:23.713Z,57.29
2018-12-15T01:01:10.787Z,57.75
2018-12-15T01:03:50.574Z,58.35
2018-12-15T01:06:41.538Z,56.51
2018-12-15T01:09:19.393Z,57.43
2018-12-15T01:11:53.323Z,57.35
2018-12-15T01:14:31.022Z,57.52
2018-12-15T01:17:02.151Z,57.11
2018-12-15T01:19:53.012Z,56.66
2018-12-15T01:22:30.756Z,55.85
2018-12-15T01:25:02.006Z,54.33
2018-12-15T01:27:35.168Z,56.21
2018-12-15T01:30:13.819Z,57.63
2018-12-15T01:32:47.205Z,55.92
2018-12-15T01:35:19.270Z,55.97
2018-12-15T01:37:58.806Z,57.10
2018-12-15T01:40:36.806Z,56.81
2018-12-15T01:43:17.306Z,55.39
2018-12-15T01:45:48.838Z,56.27
2018-12-15T01:48:18.793Z,55.71
2018-12-15T01:50:56.609Z,56.07
2018-12-15T01:53:34.511Z,53.88
2018-12-15T01:56:06.466Z,52.80
2018-12-15T01:58:41.201Z,53.23
2018-12-15T02:01:15.211Z,53.14
2018-12-15T02:03:46.392Z,53.72
2018-12-15T02:06:20.331Z,55.04
2018-12-15T02:08:58.938Z,53.36
2018-12-15T02:11:36.797Z,53.44
2018-12-15T02:14:08.257Z,54.63
2018-12-15T02:16:39.406Z,56.12
2018-12-15T02:19:10.426Z,54.10
2018-12-15T02:21:43.162Z,53.86
2018-12-15T02:24:21.668Z,54.22
2018-12-15T02:26:53.910Z,54.21
2018-12-15T02:29:23.777Z,56.80
2018-12-15T02:31:53.751Z,55.04
2018-12-15T02:34:25.312Z,55.46
2018-12-15T02:36:58.309Z,54.29
2018-12-15T02:39:36.031Z,54.23
2018-12-15T02:42:14.035Z,55.82
2018-12-15T02:44:51.767Z,55.12
2018-12-15T02:47:29.780Z,55.12
2018-12-15T02:50:00.812Z,55.64
2018-12-15T02:52:32.781Z,54.33
2018-12-15T02:55:04.740Z,53.44
2018-12-15T02:57:35.915Z,54.34
2018-12-15T03:00:07.037Z,54.26
2018-12-15T03:02:38.101Z,55.01
2018-12-15T03:05:11.926Z,54.51
2018-12-15T03:07:49.920Z,55.39
2018-12-15T03:10:21.127Z,56.59
2018-12-15T03:12:52.250Z,54.81
2018-12-15T03:15:24.115Z,55.46
2018-12-15T03:18:02.960Z,54.90
2018-12-15T03:20:32.910Z,56.18
2018-12-15T03:23:03.934Z,56.29
2018-12-15T03:25:36.241Z,56.43
2018-12-15T03:28:13.970Z,56.46
2018-12-15T03:30:48.197Z,54.86
2018-12-15T03:33:19.360Z,56.16
2018-12-15T03:35:53.377Z,56.33
2018-12-15T03:38:31.203Z,55.90
2018-12-15T03:41:09.353Z,56.82
2018-12-15T03:43:47.362Z,56.22
2018-12-15T03:46:19.678Z,56.88
2018-12-15T03:48:58.171Z,56.85
2018-12-15T03:51:33.194Z,57.31
2018-12-15T03:54:11.022Z,57.46
2018-12-15T03:56:45.160Z,57.47
2018-12-15T03:59:23.157Z,58.30
2018-12-15T04:01:54.401Z,56.52
2018-12-15T04:04:25.753Z,56.01
2018-12-15T04:06:57.497Z,55.20
2018-12-15T04:12:21.390Z,56.13
2018-12-15T04:14:52.449Z,56.81
2018-12-15T04:17:30.330Z,58.24
2018-12-15T04:20:01.571Z,56.88
2018-12-15T04:22:42.939Z,59.39
2018-12-15T04:25:14.507Z,57.17
2018-12-15T04:27:48.461Z,56.77
2018-12-15T04:30:26.223Z,57.92
2018-12-15T04:32:57.910Z,58.32
2018-12-15T04:35:30.845Z,59.54
2018-12-15T04:38:11.697Z,58.39
2018-12-15T04:40:43.182Z,58.74
2018-12-15T04:43:21.553Z,57.15
2018-12-15T04:45:52.855Z,58.87
2018-12-15T04:48:31.334Z,57.40
2018-12-15T04:51:11.374Z,56.61
2018-12-15T04:53:41.907Z,56.27
2018-12-15T04:56:13.833Z,58.35
2018-12-15T04:58:54.464Z,59.11
2018-12-15T05:01:34.682Z,57.21
2018-12-15T05:04:08.865Z,58.60
2018-12-15T05:06:41.927Z,57.73
2018-12-15T05:09:27.200Z,58.16
2018-12-15T05:12:05.518Z,58.49
2018-12-15T05:14:44.424Z,56.99
2018-12-15T05:17:15.681Z,58.26
2018-12-15T05:19:53.635Z,58.08
2018-12-15T05:22:28.786Z,54.95
2018-12-15T05:25:00.020Z,55.28
2018-12-15T05:27:39.692Z,56.61
2018-12-15T05:30:11.614Z,56.48
2018-12-15T05:32:50.056Z,56.35
2018-12-15T05:35:22.269Z,57.48
2018-12-15T05:37:53.202Z,56.46
2018-12-15T05:40:32.722Z,54.67
2018-12-15T05:43:15.042Z,57.33
2018-12-15T05:45:47.530Z,56.49
2018-12-15T05:48:26.295Z,56.04
2018-12-15T05:51:05.138Z,57.13
2018-12-15T05:56:31.234Z,57.76
2018-12-15T05:59:10.818Z,57.34
2018-12-15T06:01:43.253Z,55.43
2018-12-15T06:04:30.301Z,57.14
2018-12-15T06:07:01.402Z,55.68
2018-12-15T06:09:43.560Z,57.18
2018-12-15T06:12:14.233Z,57.63
2018-12-15T06:14:53.733Z,55.40
2018-12-15T06:17:32.679Z,56.89
2018-12-15T06:20:12.520Z,57.58
2018-12-15T06:22:47.536Z,56.71
2018-12-15T06:25:20.562Z,58.59
2018-12-15T06:27:51.690Z,57.58
2018-12-15T06:30:25.187Z,57.78
2018-12-15T06:33:04.722Z,56.14
2018-12-15T06:35:35.969Z,58.04
2018-12-15T06:41:09.362Z,57.63
2018-12-15T06:43:53.888Z,57.33
2018-12-15T06:46:26.647Z,57.55
2018-12-15T06:49:06.373Z,59.19
2018-12-15T06:51:45.301Z,57.37
2018-12-15T06:54:24.546Z,59.17
2018-12-15T06:57:00.262Z,56.01
2018-12-15T06:59:32.576Z,58.47
2018-12-15T07:02:10.275Z,60.09
2018-12-15T07:04:48.095Z,58.02
2018-12-15T07:07:27.886Z,57.86
2018-12-15T07:10:00.098Z,56.33
2018-12-15T07:12:29.726Z,57.46
2018-12-15T07:15:09.388Z,55.32
2018-12-15T07:17:49.252Z,57.78
2018-12-15T07:20:21.458Z,59.64
2018-12-15T07:22:52.474Z,58.25
2018-12-15T07:25:26.452Z,57.33
2018-12-15T07:27:57.426Z,59.07
2018-12-15T07:30:42.966Z,58.20
2018-12-15T07:33:22.226Z,59.42
2018-12-15T07:35:53.750Z,56.32
2018-12-15T07:38:32.076Z,56.76
2018-12-15T07:41:11.827Z,55.88
2018-12-15T07:43:45.782Z,56.97
2018-12-15T07:46:18.767Z,55.41
2018-12-15T07:49:01.053Z,58.71
2018-12-15T07:51:41.298Z,58.28
2018-12-15T07:54:13.574Z,57.93
2018-12-15T07:56:48.621Z,58.95
2018-12-15T07:59:27.726Z,60.63
2018-12-15T08:02:06.948Z,59.20
2018-12-15T08:04:46.212Z,59.66
2018-12-15T08:07:23.977Z,59.35
2018-12-15T08:10:04.378Z,57.86
2018-12-15T08:12:43.054Z,57.96
2018-12-15T08:15:15.426Z,57.67
2018-12-15T08:17:55.936Z,57.31
2018-12-15T08:20:28.224Z,56.79
2018-12-15T08:23:08.053Z,58.30
2018-12-15T08:25:39.232Z,58.86
2018-12-15T08:28:17.054Z,59.19
2018-12-15T08:30:56.208Z,58.23
2018-12-15T08:33:28.548Z,59.77
2018-12-15T08:36:01.600Z,60.52
2018-12-15T08:38:31.656Z,59.73
2018-12-15T08:41:18.823Z,60.04
2018-12-15T08:43:58.164Z,60.33
2018-12-15T08:46:38.079Z,61.14
2018-12-15T08:49:09.345Z,59.68
2018-12-15T08:51:44.927Z,62.00
2018-12-15T08:54:17.200Z,61.30
2018-12-15T08:56:52.659Z,59.75
2018-12-15T08:59:31.605Z,59.69
2018-12-15T09:02:04.746Z,58.51
2018-12-15T09:04:35.815Z,60.07
2018-12-15T09:07:08.682Z,60.68
2018-12-15T09:09:39.932Z,59.33
2018-12-15T09:12:15.322Z,60.03
2018-12-15T09:14:48.443Z,60.10
2018-12-15T09:17:20.450Z,60.67
2018-12-15T09:20:01.077Z,60.06
2018-12-15T09:22:36.162Z,61.40
2018-12-15T09:25:13.984Z,60.95
2018-12-15T09:27:45.297Z,61.20
2018-12-15T09:30:26.622Z,60.23
2018-12-15T09:32:57.923Z,59.04
2018-12-15T09:35:30.726Z,59.65
2018-12-15T09:38:11.328Z,58.62
2018-12-15T09:40:53.254Z,58.76
2018-12-15T09:43:34.804Z,59.54
2018-12-15T09:46:07.868Z,61.04
2018-12-15T09:48:47.226Z,59.59
2018-12-15T09:51:18.530Z,58.46
2018-12-15T09:53:57.212Z,59.10
2018-12-15T09:56:30.324Z,60.23
2018-12-15T09:59:01.368Z,61.86
2018-12-15T10:01:40.276Z,60.25
2018-12-15T10:04:12.568Z,60.56
2018-12-15T10:06:45.167Z,59.03
2018-12-15T10:09:23.728Z,60.18
2018-12-15T10:11:56.142Z,61.02
2018-12-15T10:14:33.998Z,60.68
2018-12-15T10:17:06.290Z,59.96
2018-12-15T10:19:45.083Z,59.40
2018-12-15T10:22:17.411Z,60.43
2018-12-15T10:24:55.228Z,59.51
2018-12-15T10:27:34.036Z,59.54
2018-12-15T10:30:18.496Z,61.51
2018-12-15T10:33:04.995Z,62.28
2018-12-15T10:35:37.138Z,61.77
2018-12-15T10:38:09.235Z,61.21
2018-12-15T10:40:47.685Z,63.00
2018-12-15T10:46:13.594Z,63.01
2018-12-15T10:48:54.882Z,62.20
2018-12-15T10:51:33.275Z,63.41
2018-12-15T10:54:11.142Z,61.79
2018-12-15T10:56:44.046Z,62.27
2018-12-15T10:59:24.579Z,62.80
2018-12-15T11:02:10.094Z,62.72
2018-12-15T11:04:50.721Z,61.95
2018-12-15T11:07:24.796Z,63.04
2018-12-15T11:10:03.689Z,60.38
2018-12-15T11:12:35.985Z,61.59
2018-12-15T11:15:14.467Z,61.71
2018-12-15T11:17:50.520Z,61.33
2018-12-15T11:20:30.378Z,64.06
2018-12-15T11:23:10.022Z,63.02
2018-12-15T11:25:44.065Z,62.03
2018-12-15T11:28:22.622Z,63.38
2018-12-15T11:30:55.283Z,64.19
2018-12-15T11:33:34.743Z,63.28
2018-12-15T11:36:08.821Z,63.14
2018-12-15T11:38:51.071Z,63.79
2018-12-15T11:41:27.524Z,63.50
2018-12-15T11:43:58.720Z,62.54
2018-12-15T11:46:30.901Z,63.56
2018-12-15T11:49:11.506Z,61.94
2018-12-15T11:51:51.603Z,63.66
2018-12-15T11:54:27.572Z,63.39
2018-12-15T11:57:01.066Z,63.24
2018-12-15T11:59:40.863Z,60.23
2018-12-15T12:02:14.095Z,61.81
2018-12-15T12:07:46.596Z,63.48
2018-12-15T12:10:17.463Z,63.69
2018-12-15T12:12:58.809Z,63.60
2018-12-15T12:15:34.043Z,63.34
2018-12-15T12:18:06.243Z,62.98
2018-12-15T12:20:45.061Z,64.38
2018-12-15T12:23:25.196Z,63.98
2018-12-15T12:25:57.678Z,75.25
2018-12-15T12:28:28.616Z,64.05
2018-12-15T12:31:08.314Z,72.08
2018-12-15T12:33:39.488Z,61.44
2018-12-15T12:36:14.494Z,63.12
2018-12-15T12:38:46.716Z,64.03
2018-12-15T12:41:28.968Z,62.14
2018-12-15T12:44:10.694Z,61.91
2018-12-15T12:46:46.225Z,63.81
2018-12-15T12:49:30.479Z,64.42
2018-12-15T12:52:04.666Z,63.89
2018-12-15T12:54:44.724Z,64.46
2018-12-15T12:57:19.758Z,63.45
2018-12-15T12:59:54.466Z,63.77
2018-12-15T13:02:27.711Z,65.04
2018-12-15T13:04:58.756Z,61.45
2018-12-15T13:07:46.416Z,61.94
2018-12-15T13:10:25.183Z,61.60
2018-12-15T13:13:04.116Z,61.01
2018-12-15T13:15:36.217Z,63.74
2018-12-15T13:18:06.977Z,59.80
2018-12-15T13:20:46.659Z,61.34
2018-12-15T13:23:26.573Z,62.51
2018-12-15T13:26:01.345Z,61.62
2018-12-15T13:28:50.369Z,60.94
2018-12-15T13:31:25.108Z,60.90
2018-12-15T13:34:00.254Z,60.76
2018-12-15T13:36:33.327Z,60.25
2018-12-15T13:39:14.826Z,59.74
2018-12-15T13:41:53.701Z,60.64
2018-12-15T13:47:17.052Z,61.45
2018-12-15T13:49:56.259Z,61.58
2018-12-15T13:52:26.719Z,62.41
2018-12-15T13:55:03.601Z,61.90
2018-12-15T13:57:50.930Z,61.94
2018-12-15T14:00:27.244Z,61.70
2018-12-15T14:03:05.986Z,61.06
2018-12-15T14:05:38.083Z,62.41
2018-12-15T14:08:17.606Z,61.68
2018-12-15T14:10:52.639Z,60.11
2018-12-15T14:13:34.963Z,60.63
2018-12-15T14:16:07.415Z,61.93
2018-12-15T14:18:47.358Z,61.27
2018-12-15T14:21:19.640Z,61.98
2018-12-15T14:23:57.536Z,61.03
2018-12-15T14:26:31.738Z,61.52
2018-12-15T14:29:04.312Z,60.86
2018-12-15T14:31:37.527Z,61.79
2018-12-15T14:34:16.356Z,62.11
2018-12-15T14:36:48.315Z,61.50
2018-12-15T14:39:29.076Z,62.21
2018-12-15T14:42:00.224Z,64.58
2018-12-15T14:44:39.446Z,60.26
2018-12-15T14:47:11.647Z,62.96
2018-12-15T14:49:54.756Z,61.94
2018-12-15T14:52:33.847Z,61.89
2018-12-15T14:55:07.969Z,62.08
2018-12-15T14:57:40.282Z,62.25
2018-12-15T15:00:15.180Z,62.83
2018-12-15T15:02:47.399Z,63.17
2018-12-15T15:05:19.126Z,62.00
2018-12-15T15:07:57.521Z,62.29
2018-12-15T15:10:32.379Z,63.75
2018-12-15T15:13:07.983Z,62.10
2018-12-15T15:15:41.216Z,63.89
2018-12-15T15:18:13.291Z,62.68
2018-12-15T15:20:47.153Z,65.57
2018-12-15T15:23:18.247Z,62.78
2018-12-15T15:25:49.091Z,62.43
2018-12-15T15:28:21.255Z,63.30
2018-12-15T15:31:00.796Z,64.11
2018-12-15T15:33:40.720Z,63.61
2018-12-15T15:36:13.126Z,65.17
2018-12-15T15:38:58.249Z,61.75
2018-12-15T15:41:37.894Z,62.70
2018-12-15T15:44:10.256Z,62.54
2018-12-15T15:46:40.216Z,63.29
2018-12-15T15:49:19.007Z,62.69
2018-12-15T15:54:53.413Z,63.92
2018-12-15T15:57:26.063Z,63.13
2018-12-15T16:00:07.851Z,64.13
2018-12-15T16:02:55.823Z,64.81
2018-12-15T16:05:29.027Z,64.86
2018-12-15T16:07:59.944Z,64.82
2018-12-15T16:10:40.371Z,64.18
2018-12-15T16:13:21.577Z,64.74
2018-12-15T16:15:53.933Z,64.80
2018-12-15T16:18:29.474Z,62.28
2018-12-15T16:21:08.364Z,63.52
2018-12-15T16:23:43.214Z,64.62
2018-12-15T16:26:15.283Z,63.73
2018-12-15T16:28:56.522Z,65.33
2018-12-15T16:31:35.760Z,63.48
2018-12-15T16:34:14.940Z,65.80
2018-12-15T16:36:47.036Z,65.80
2018-12-15T16:39:29.333Z,65.73
2018-12-15T16:42:14.081Z,66.00
2018-12-15T16:44:48.529Z,66.57
2018-12-15T16:47:27.730Z,65.78
2018-12-15T16:50:02.706Z,65.04
2018-12-15T16:52:41.850Z,66.51
2018-12-15T16:55:14.421Z,65.03
2018-12-15T16:57:45.106Z,65.58
2018-12-15T17:00:16.159Z,63.08
2018-12-15T17:02:51.673Z,63.44
2018-12-15T17:05:22.737Z,66.19
2018-12-15T17:07:55.025Z,66.29
2018-12-15T17:10:34.705Z,64.59
2018-12-15T17:13:06.924Z,65.56
2018-12-15T17:15:37.822Z,66.24
2018-12-15T17:18:16.676Z,64.27
2018-12-15T17:20:58.583Z,63.89
2018-12-15T17:23:30.347Z,65.22
2018-12-15T17:26:01.204Z,65.91
2018-12-15T17:28:31.003Z,65.67
2018-12-15T17:31:10.692Z,66.44
2018-12-15T17:33:42.802Z,65.79
2018-12-15T17:36:19.232Z,64.08
2018-12-15T17:38:51.350Z,65.07
2018-12-15T17:41:30.338Z,66.30
2018-12-15T17:44:06.582Z,65.61
2018-12-15T17:46:45.422Z,65.61
2018-12-15T17:49:23.319Z,64.88
2018-12-15T17:51:56.760Z,64.79
2018-12-15T17:54:26.811Z,65.43
2018-12-15T17:56:56.651Z,65.58
2018-12-15T17:59:27.461Z,64.56
2018-12-15T18:02:14.138Z,66.24
2018-12-15T18:04:44.848Z,66.39
2018-12-15T18:07:19.480Z,65.34
2018-12-15T18:09:51.767Z,64.97
2018-12-15T18:12:30.319Z,66.49
2018-12-15T18:15:03.874Z,66.92
2018-12-15T18:17:34.710Z,68.67
2018-12-15T18:20:07.649Z,67.58
2018-12-15T18:22:44.443Z,65.37
2018-12-15T18:25:25.938Z,66.97
2018-12-15T18:28:04.359Z,67.27
2018-12-15T18:30:49.452Z,66.83
2018-12-15T18:36:16.396Z,65.81
2018-12-15T18:38:59.014Z,65.18
2018-12-15T18:41:32.838Z,65.77
2018-12-15T18:44:06.642Z,65.70
2018-12-15T18:46:42.228Z,67.13
2018-12-15T18:49:18.230Z,67.04
2018-12-15T18:51:58.273Z,65.78
2018-12-15T18:54:38.119Z,66.19
2018-12-15T18:57:10.589Z,68.73
2018-12-15T18:59:43.375Z,66.96
2018-12-15T19:02:16.408Z,66.17
2018-12-15T19:04:57.408Z,64.81
2018-12-15T19:07:29.268Z,71.38
2018-12-15T19:10:07.997Z,65.53
2018-12-15T19:12:38.799Z,65.25
2018-12-15T19:15:17.423Z,66.87
2018-12-15T19:17:56.134Z,68.70
2018-12-15T19:20:30.081Z,65.83
2018-12-15T19:23:01.003Z,66.85
2018-12-15T19:25:33.203Z,67.56
2018-12-15T19:28:07.608Z,67.39
2018-12-15T19:30:42.570Z,68.93
2018-12-15T19:33:14.558Z,66.67
2018-12-15T19:35:46.829Z,66.82
2018-12-15T19:38:27.584Z,68.92
2018-12-15T19:40:57.656Z,68.02
2018-12-15T19:43:36.485Z,66.73
2018-12-15T19:46:08.633Z,67.53
2018-12-15T19:48:50.792Z,67.29
2018-12-15T19:51:32.901Z,67.55
2018-12-15T19:54:07.337Z,67.87
2018-12-15T19:56:38.442Z,68.02
2018-12-15T19:59:12.191Z,69.16
2018-12-15T20:01:51.274Z,69.17
2018-12-15T20:04:29.109Z,69.17
2018-12-15T20:07:03.287Z,68.60
2018-12-15T20:09:42.003Z,67.69
2018-12-15T20:12:20.866Z,68.35
2018-12-15T20:15:06.459Z,69.08
2018-12-15T20:17:45.750Z,66.79
2018-12-15T20:20:18.051Z,68.98
2018-12-15T20:22:58.462Z,67.51
2018-12-15T20:25:31.011Z,67.66
2018-12-15T20:30:57.663Z,69.42
2018-12-15T20:33:28.703Z,68.16
2018-12-15T20:36:00.675Z,67.52
2018-12-15T20:38:39.475Z,68.78
2018-12-15T20:41:23.838Z,67.57
2018-12-15T20:43:54.684Z,69.01
2018-12-15T20:46:27.637Z,68.24
2018-12-15T20:49:08.291Z,67.75
2018-12-15T20:51:42.959Z,68.53
2018-12-15T20:54:29.430Z,69.13
2018-12-15T20:57:02.184Z,69.66
2018-12-15T20:59:43.366Z,67.53
2018-12-15T21:02:16.223Z,68.91
2018-12-15T21:04:55.978Z,68.85
2018-12-15T21:07:27.299Z,67.61
2018-12-15T21:10:04.781Z,68.71
2018-12-15T21:12:40.030Z,67.52
2018-12-15T21:15:19.958Z,67.83
2018-12-15T21:17:57.891Z,68.71
2018-12-15T21:20:37.597Z,68.61
2018-12-15T21:23:16.765Z,69.52
2018-12-15T21:25:52.273Z,70.41
2018-12-15T21:28:40.951Z,68.28
2018-12-15T21:31:20.606Z,68.82
2018-12-15T21:33:56.561Z,68.72
2018-12-15T21:36:29.804Z,70.24
2018-12-15T21:39:05.242Z,68.67
2018-12-15T21:41:39.710Z,69.48
2018-12-15T21:44:10.770Z,67.68
2018-12-15T21:46:43.924Z,67.68
2018-12-15T21:49:14.910Z,68.36
2018-12-15T21:51:56.964Z,69.10
2018-12-15T21:54:35.881Z,68.33
2018-12-15T21:57:08.074Z,69.16
2018-12-15T21:59:42.099Z,68.07
2018-12-15T22:02:28.694Z,68.63
2018-12-15T22:05:04.589Z,68.36
2018-12-15T22:10:44.003Z,66.07
2018-12-15T22:13:23.543Z,66.79
2018-12-15T22:15:55.691Z,66.54
2018-12-15T22:18:34.702Z,67.55
2018-12-15T22:21:06.821Z,66.66
2018-12-15T22:23:45.720Z,67.58
2018-12-15T22:26:18.922Z,65.80
2018-12-15T22:28:49.866Z,68.28
2018-12-15T22:31:20.921Z,67.74
2018-12-15T22:33:59.829Z,66.85
2018-12-15T22:36:32.004Z,66.28
2018-12-15T22:39:09.980Z,66.02
2018-12-15T22:41:44.800Z,67.11
2018-12-15T22:44:18.136Z,66.91
2018-12-15T22:46:52.180Z,66.85
2018-12-15T22:49:30.559Z,65.71
2018-12-15T22:52:17.509Z,66.24
2018-12-15T22:54:50.102Z,64.24
2018-12-15T22:57:22.934Z,65.15
2018-12-15T23:00:01.577Z,65.65
2018-12-15T23:02:41.137Z,65.91
2018-12-15T23:07:51.100Z,66.23
2018-12-15T23:10:29.933Z,64.88
2018-12-15T23:13:08.851Z,65.71
2018-12-15T23:15:41.439Z,65.30
2018-12-15T23:18:21.019Z,66.47
2018-12-15T23:20:56.310Z,65.77
2018-12-15T23:23:35.875Z,66.09
2018-12-15T23:26:14.620Z,65.93
2018-12-15T23:31:46.172Z,65.30
2018-12-15T23:34:21.116Z,66.21
2018-12-15T23:36:53.027Z,66.11
2018-12-15T23:39:31.697Z,66.04
2018-12-15T23:42:02.694Z,66.83
2018-12-15T23:44:47.793Z,66.69
2018-12-15T23:47:19.462Z,65.82
2018-12-15T23:50:00.769Z,66.26
2018-12-15T23:52:31.620Z,66.17
2018-12-15T23:55:11.424Z,65.77
2018-12-15T23:57:44.650Z,65.77
